Time;durP1;ratioP1;P1;durP2;ratioP2;P2;SDS_P1;SDS_P2;PMS_P1;PMS_P2;Temp;Humidity;BMP_temperature;BMP_pressure;BME280_temperature;BME280_humidity;BME280_pressure;Samples;Min_cycle;Max_cycle;Signal;HPM_P1;HPM_P2
2024/01/28 00:00:36;;;;;;;8.07;4.43;;;12.10;93.00;;;;;;5034456;28;20618;-44
2024/01/28 00:03:02;;;;;;;6.05;4.30;;;12.10;93.10;;;;;;5034315;28;20037;-45
2024/01/28 00:05:28;;;;;;;5.80;4.05;;;12.00;93.20;;;;;;5034032;28;20136;-43
2024/01/28 00:07:54;;;;;;;6.03;3.92;;;12.00;93.30;;;;;;5034232;28;20387;-40
2024/01/28 00:10:19;;;;;;;7.88;4.30;;;11.90;93.30;;;;;;5034000;28;20376;-44
2024/01/28 00:12:45;;;;;;;8.40;4.50;;;11.90;93.40;;;;;;5032995;28;20028;-45
2024/01/28 00:15:11;;;;;;;6.38;4.13;;;11.90;93.50;;;;;;5033283;28;20026;-41
2024/01/28 00:17:37;;;;;;;6.90;4.50;;;11.80;93.50;;;;;;5032880;28;20040;-45
2024/01/28 00:20:05;;;;;;;5.75;3.88;;;11.80;93.60;;;;;;5034021;28;20156;-42
2024/01/28 00:22:34;;;;;;;6.78;3.80;;;11.70;93.60;;;;;;5032841;28;20032;-42
2024/01/28 00:24:59;;;;;;;6.40;4.03;;;11.60;93.70;;;;;;5033392;28;20402;-44
2024/01/28 00:27:25;;;;;;;7.28;4.25;;;11.60;93.70;;;;;;5033619;28;20120;-44
2024/01/28 00:29:51;;;;;;;7.40;4.95;;;11.60;93.80;;;;;;5033024;28;20017;-44
2024/01/28 00:32:17;;;;;;;5.97;3.67;;;11.60;93.90;;;;;;5033188;28;20029;-45
2024/01/28 00:34:43;;;;;;;6.13;4.00;;;11.50;93.90;;;;;;5032709;28;20061;-45
2024/01/28 00:37:08;;;;;;;6.43;4.20;;;11.40;94.00;;;;;;5032951;28;20033;-42
2024/01/28 00:39:35;;;;;;;6.03;4.00;;;11.40;94.00;;;;;;5032519;28;20100;-44
2024/01/28 00:42:02;;;;;;;7.35;4.18;;;11.40;94.10;;;;;;5032619;28;20021;-41
2024/01/28 00:44:27;;;;;;;7.40;3.85;;;11.40;94.50;;;;;;5032722;28;20369;-44
2024/01/28 00:46:55;;;;;;;7.40;3.80;;;11.30;94.20;;;;;;5032634;28;20112;-44
2024/01/28 00:49:23;;;;;;;6.85;3.92;;;11.30;94.20;;;;;;5032744;28;20021;-40
2024/01/28 00:51:49;;;;;;;6.13;3.63;;;11.30;94.30;;;;;;5032482;28;20025;-45
2024/01/28 00:54:15;;;;;;;5.38;3.83;;;11.20;94.30;;;;;;5032936;28;20025;-43
2024/01/28 00:56:41;;;;;;;5.88;4.20;;;11.20;94.40;;;;;;5032600;28;20040;-44
2024/01/28 00:59:06;;;;;;;6.57;3.97;;;11.20;94.40;;;;;;5032256;28;20025;-44
2024/01/28 01:01:33;;;;;;;6.45;3.60;;;11.10;94.50;;;;;;5032179;28;20030;-44
2024/01/28 01:03:59;;;;;;;7.00;4.28;;;11.10;94.50;;;;;;5033598;28;20040;-42
2024/01/28 01:06:24;;;;;;;7.20;4.13;;;11.10;94.50;;;;;;5032979;28;20038;-45
2024/01/28 01:08:50;;;;;;;7.10;4.15;;;11.00;94.60;;;;;;5032700;28;20030;-42
2024/01/28 01:11:15;;;;;;;5.75;3.60;;;11.00;94.60;;;;;;5031935;28;20026;-44
2024/01/28 01:13:41;;;;;;;6.95;4.22;;;11.00;94.70;;;;;;5031839;28;20067;-44
2024/01/28 01:16:07;;;;;;;6.97;4.05;;;10.90;94.70;;;;;;5032299;28;20028;-44
2024/01/28 01:18:32;;;;;;;8.35;3.97;;;10.90;94.80;;;;;;5032568;28;20018;-44
2024/01/28 01:20:58;;;;;;;5.65;3.70;;;10.90;94.80;;;;;;5032758;28;20025;-45
2024/01/28 01:23:24;;;;;;;5.80;3.92;;;10.90;94.80;;;;;;5032592;28;20025;-45
2024/01/28 01:25:50;;;;;;;5.68;3.78;;;10.80;94.80;;;;;;5031800;28;20044;-44
2024/01/28 01:28:16;;;;;;;5.85;3.67;;;10.80;94.80;;;;;;5031419;28;20033;-45
2024/01/28 01:30:41;;;;;;;5.78;3.90;;;10.80;94.90;;;;;;5031692;28;20376;-44
2024/01/28 01:33:07;;;;;;;7.78;3.58;;;10.80;94.90;;;;;;5032591;28;20026;-44
2024/01/28 01:35:33;;;;;;;6.97;3.85;;;10.70;95.00;;;;;;5031481;28;20540;-42
2024/01/28 01:37:58;;;;;;;6.25;4.13;;;10.70;95.00;;;;;;5031537;28;20026;-44
2024/01/28 01:40:24;;;;;;;5.78;3.83;;;10.70;95.00;;;;;;5032211;28;20033;-44
2024/01/28 01:42:50;;;;;;;6.38;4.15;;;10.70;95.10;;;;;;5031501;28;20037;-45
2024/01/28 01:45:16;;;;;;;4.32;3.15;;;10.70;95.10;;;;;;5032180;28;20103;-44
2024/01/28 01:47:42;;;;;;;6.72;3.60;;;10.70;95.10;;;;;;5031737;28;20037;-45
2024/01/28 01:50:10;;;;;;;7.22;3.95;;;10.60;95.10;;;;;;5031475;28;20383;-45
2024/01/28 01:52:41;;;;;;;6.43;3.85;;;10.60;95.20;;;;;;5031396;28;20025;-44
2024/01/28 01:55:08;;;;;;;4.82;3.08;;;10.60;95.20;;;;;;5031459;28;20022;-43
2024/01/28 01:57:35;;;;;;;5.78;3.30;;;10.60;95.20;;;;;;5029889;28;20037;-44
2024/01/28 02:00:01;;;;;;;7.97;4.13;;;10.60;95.30;;;;;;5031153;28;20380;-45
2024/01/28 02:02:27;;;;;;;5.55;3.60;;;10.50;95.30;;;;;;5031279;28;20036;-45
2024/01/28 02:04:53;;;;;;;6.03;3.22;;;10.50;95.30;;;;;;5031021;28;20049;-45
2024/01/28 02:07:19;;;;;;;6.07;3.50;;;10.50;95.30;;;;;;5033052;28;20021;-44
2024/01/28 02:09:44;;;;;;;7.13;3.53;;;10.50;95.40;;;;;;5033881;28;20017;-44
2024/01/28 02:12:10;;;;;;;7.45;3.83;;;10.50;95.40;;;;;;5035565;28;20099;-44
2024/01/28 02:14:36;;;;;;;7.13;3.80;;;10.50;95.40;;;;;;5035130;28;20080;-42
2024/01/28 02:17:01;;;;;;;6.07;3.40;;;10.50;95.50;;;;;;5036020;28;20026;-45
2024/01/28 02:19:27;;;;;;;6.63;3.83;;;10.40;95.40;;;;;;5036343;28;20025;-42
2024/01/28 02:21:53;;;;;;;5.13;3.30;;;10.40;95.50;;;;;;5035903;28;20407;-42
2024/01/28 02:24:19;;;;;;;5.85;3.38;;;10.40;95.50;;;;;;5035226;28;20487;-45
2024/01/28 02:26:45;;;;;;;5.80;3.47;;;10.30;95.50;;;;;;5036441;28;20088;-45
2024/01/28 02:29:11;;;;;;;5.45;3.30;;;10.30;95.50;;;;;;5035176;28;20033;-44
2024/01/28 02:31:36;;;;;;;6.75;3.65;;;10.30;95.50;;;;;;5035227;28;20025;-44
2024/01/28 02:34:02;;;;;;;6.22;3.40;;;10.30;95.60;;;;;;5034739;28;20022;-43
2024/01/28 02:36:29;;;;;;;8.43;3.85;;;10.30;95.60;;;;;;5035040;28;20022;-42
2024/01/28 02:38:55;;;;;;;6.68;3.90;;;10.30;95.60;;;;;;5035969;28;20484;-44
2024/01/28 02:41:21;;;;;;;7.30;3.60;;;10.20;95.60;;;;;;5035301;28;20074;-45
2024/01/28 02:43:47;;;;;;;7.75;3.53;;;10.30;95.70;;;;;;5034903;28;20071;-45
2024/01/28 02:46:14;;;;;;;5.25;3.30;;;10.20;95.60;;;;;;5034606;28;20100;-44
2024/01/28 02:48:40;;;;;;;4.50;2.80;;;10.20;95.70;;;;;;5034652;28;20038;-43
2024/01/28 02:51:06;;;;;;;6.60;3.50;;;10.20;95.70;;;;;;5035611;28;20483;-44
2024/01/28 02:53:32;;;;;;;5.10;3.33;;;10.20;95.70;;;;;;5035102;28;20029;-45
2024/01/28 02:55:59;;;;;;;5.13;3.38;;;10.20;95.80;;;;;;5034769;28;20095;-44
2024/01/28 02:58:26;;;;;;;4.28;2.97;;;10.20;95.80;;;;;;5035337;28;20084;-43
2024/01/28 03:00:52;;;;;;;5.72;3.33;;;10.20;95.80;;;;;;5035193;28;20431;-44
2024/01/28 03:03:18;;;;;;;5.70;3.25;;;10.10;95.80;;;;;;5035006;28;20028;-44
2024/01/28 03:05:44;;;;;;;4.63;2.83;;;10.10;95.80;;;;;;5034669;28;20043;-45
2024/01/28 03:08:10;;;;;;;5.80;3.20;;;10.10;95.80;;;;;;5035385;28;20539;-44
2024/01/28 03:10:36;;;;;;;5.68;3.20;;;10.10;95.90;;;;;;5034306;28;20395;-42
2024/01/28 03:13:02;;;;;;;6.20;3.22;;;10.10;95.90;;;;;;5034272;28;20472;-45
2024/01/28 03:15:27;;;;;;;4.72;3.05;;;10.10;95.90;;;;;;5034017;28;20357;-43
2024/01/28 03:17:53;;;;;;;4.53;3.22;;;10.10;95.90;;;;;;5034177;28;20051;-43
2024/01/28 03:20:19;;;;;;;6.47;3.35;;;10.10;95.90;;;;;;5034171;28;20072;-43
2024/01/28 03:22:45;;;;;;;5.13;2.85;;;10.00;95.90;;;;;;5034028;28;20045;-45
2024/01/28 03:25:12;;;;;;;7.32;3.65;;;10.00;95.90;;;;;;5033778;28;20395;-45
2024/01/28 03:27:38;;;;;;;4.13;2.90;;;10.00;95.90;;;;;;5033743;28;20482;-45
2024/01/28 03:30:05;;;;;;;4.80;2.97;;;10.00;95.90;;;;;;5033927;28;20049;-44
2024/01/28 03:32:31;;;;;;;5.03;2.95;;;10.00;96.00;;;;;;5033767;28;20147;-43
2024/01/28 03:34:57;;;;;;;7.05;3.35;;;10.00;96.00;;;;;;5033884;28;20032;-44
2024/01/28 03:37:23;;;;;;;4.72;2.92;;;10.00;96.00;;;;;;5033730;28;20033;-44
2024/01/28 03:39:49;;;;;;;5.65;2.72;;;10.00;96.00;;;;;;5033671;28;20104;-45
2024/01/28 03:42:14;;;;;;;4.22;2.72;;;10.00;96.00;;;;;;5033693;28;20053;-44
2024/01/28 03:44:40;;;;;;;4.13;2.72;;;9.90;96.00;;;;;;5033845;28;20096;-45
2024/01/28 03:47:06;;;;;;;5.82;2.80;;;9.90;96.00;;;;;;5035034;28;20075;-45
2024/01/28 03:49:31;;;;;;;4.75;2.78;;;9.90;96.10;;;;;;5034988;28;20093;-41
2024/01/28 03:51:57;;;;;;;3.88;2.78;;;9.90;96.10;;;;;;5034074;28;20144;-44
2024/01/28 03:54:22;;;;;;;4.70;3.28;;;9.90;96.10;;;;;;5032334;28;20021;-45
2024/01/28 03:56:48;;;;;;;4.68;2.80;;;9.90;96.10;;;;;;5034344;28;20083;-44
2024/01/28 03:59:14;;;;;;;3.67;2.80;;;9.90;96.10;;;;;;5033868;28;20295;-45
2024/01/28 04:01:40;;;;;;;5.05;2.95;;;9.90;96.10;;;;;;5034346;28;20026;-42
2024/01/28 04:04:06;;;;;;;4.35;2.65;;;9.90;96.10;;;;;;5034596;28;20029;-45
2024/01/28 04:06:31;;;;;;;5.63;3.22;;;9.80;96.10;;;;;;5034552;28;20698;-45
2024/01/28 04:08:57;;;;;;;4.30;2.60;;;9.80;96.10;;;;;;5032931;28;20025;-45
2024/01/28 04:11:27;;;;;;;3.92;2.65;;;9.80;96.10;;;;;;5033275;28;20025;-43
2024/01/28 04:13:56;;;;;;;4.43;3.03;;;9.80;96.10;;;;;;5033173;28;20017;-44
2024/01/28 04:16:22;;;;;;;4.05;2.42;;;9.80;96.10;;;;;;5033092;28;20029;-44
2024/01/28 04:18:48;;;;;;;4.93;2.97;;;9.80;96.10;;;;;;5032861;28;20029;-44
2024/01/28 04:21:14;;;;;;;4.85;2.70;;;9.80;96.10;;;;;;5033106;28;20120;-45
2024/01/28 04:23:40;;;;;;;4.85;2.63;;;9.80;96.20;;;;;;5032890;28;20061;-44
2024/01/28 04:26:06;;;;;;;5.53;2.60;;;9.80;96.20;;;;;;5033332;28;20112;-41
2024/01/28 04:28:32;;;;;;;4.10;2.58;;;9.80;96.20;;;;;;5032468;28;20097;-42
2024/01/28 04:31:01;;;;;;;4.70;2.75;;;9.70;96.20;;;;;;5032225;28;20428;-42
2024/01/28 04:33:26;;;;;;;5.38;2.88;;;9.70;96.20;;;;;;5032653;28;20068;-44
2024/01/28 04:35:52;;;;;;;4.60;2.78;;;9.70;96.20;;;;;;5032905;28;20456;-44
2024/01/28 04:38:18;;;;;;;5.53;2.90;;;9.70;96.20;;;;;;5032416;28;20032;-45
2024/01/28 04:40:44;;;;;;;3.90;2.53;;;9.70;96.20;;;;;;5032494;28;20057;-44
2024/01/28 04:43:09;;;;;;;5.22;2.65;;;9.70;96.20;;;;;;5032337;28;20024;-45
2024/01/28 04:45:36;;;;;;;4.07;2.47;;;9.70;96.20;;;;;;5032429;28;20063;-44
2024/01/28 04:48:01;;;;;;;4.10;2.25;;;9.60;96.20;;;;;;5032250;28;20061;-43
2024/01/28 04:50:27;;;;;;;4.00;2.20;;;9.60;96.20;;;;;;5032449;28;20565;-40
2024/01/28 04:52:53;;;;;;;5.15;2.35;;;9.70;96.30;;;;;;5032986;28;20030;-44
2024/01/28 04:55:18;;;;;;;3.45;2.25;;;9.60;96.30;;;;;;5032131;28;20033;-44
2024/01/28 04:57:44;;;;;;;4.00;2.30;;;9.70;96.30;;;;;;5032040;28;20395;-44
2024/01/28 05:00:10;;;;;;;4.15;2.25;;;9.60;96.30;;;;;;5032502;28;20366;-45
2024/01/28 05:02:37;;;;;;;5.53;2.58;;;9.60;96.30;;;;;;5033236;28;20552;-45
2024/01/28 05:05:03;;;;;;;3.28;2.60;;;9.60;96.30;;;;;;5032378;28;20163;-45
2024/01/28 05:07:29;;;;;;;4.80;2.75;;;9.60;96.30;;;;;;5031884;28;20032;-41
2024/01/28 05:09:55;;;;;;;3.83;2.30;;;9.60;96.30;;;;;;5032009;28;20380;-44
2024/01/28 05:12:20;;;;;;;3.63;2.22;;;9.60;96.30;;;;;;5031844;28;20479;-45
2024/01/28 05:14:47;;;;;;;3.90;2.35;;;9.60;96.30;;;;;;5032821;28;20025;-45
2024/01/28 05:17:12;;;;;;;4.63;2.30;;;9.60;96.30;;;;;;5031985;28;20026;-43
2024/01/28 05:19:38;;;;;;;4.80;2.75;;;9.50;96.30;;;;;;5032818;28;20026;-43
2024/01/28 05:22:06;;;;;;;3.58;2.30;;;9.60;96.40;;;;;;5032179;28;20391;-44
2024/01/28 05:24:32;;;;;;;5.47;2.22;;;9.50;96.30;;;;;;5031986;28;20033;-44
2024/01/28 05:26:57;;;;;;;3.95;2.03;;;9.50;96.30;;;;;;5031447;28;20025;-42
2024/01/28 05:29:23;;;;;;;3.53;2.35;;;9.50;96.30;;;;;;5032459;28;20045;-45
2024/01/28 05:31:49;;;;;;;4.60;2.58;;;9.50;96.30;;;;;;5032350;28;20037;-45
2024/01/28 05:34:14;;;;;;;3.58;2.13;;;9.50;96.30;;;;;;5031696;28;20018;-44
2024/01/28 05:36:41;;;;;;;4.20;2.28;;;9.50;96.40;;;;;;5032930;28;20018;-44
2024/01/28 05:39:07;;;;;;;3.95;2.10;;;9.50;96.30;;;;;;5031853;28;20463;-44
2024/01/28 05:41:32;;;;;;;4.07;2.10;;;9.50;96.40;;;;;;5030537;28;20120;-45
2024/01/28 05:43:58;;;;;;;3.38;2.00;;;9.50;96.40;;;;;;5031424;28;20350;-40
2024/01/28 05:46:24;;;;;;;3.75;1.95;;;9.50;96.40;;;;;;5031352;28;20104;-44
2024/01/28 05:48:50;;;;;;;3.65;2.50;;;9.50;96.40;;;;;;5031304;28;20083;-44
2024/01/28 05:51:16;;;;;;;3.53;2.17;;;9.50;96.40;;;;;;5032388;28;20040;-45
2024/01/28 05:53:42;;;;;;;3.67;2.00;;;9.40;96.40;;;;;;5031600;28;20024;-44
2024/01/28 05:56:07;;;;;;;3.42;2.10;;;9.50;96.40;;;;;;5032054;28;20021;-45
2024/01/28 05:58:33;;;;;;;2.63;2.00;;;9.40;96.40;;;;;;5031245;28;20391;-43
2024/01/28 06:01:03;;;;;;;3.70;2.20;;;9.50;96.40;;;;;;5031662;28;20030;-42
2024/01/28 06:03:28;;;;;;;3.65;1.80;;;9.40;96.40;;;;;;5031194;28;20021;-41
2024/01/28 06:05:54;;;;;;;3.22;2.13;;;9.50;96.40;;;;;;5031169;28;20029;-45
2024/01/28 06:08:20;;;;;;;4.78;2.35;;;9.40;96.40;;;;;;5031022;28;20434;-45
2024/01/28 06:10:45;;;;;;;3.05;2.00;;;9.50;96.50;;;;;;5031112;28;20025;-41
2024/01/28 06:13:11;;;;;;;2.90;2.05;;;9.40;96.40;;;;;;5031549;28;20377;-45
2024/01/28 06:15:37;;;;;;;2.78;2.03;;;9.40;96.40;;;;;;5031176;28;20033;-44
2024/01/28 06:18:02;;;;;;;4.30;2.15;;;9.40;96.40;;;;;;5030995;28;20593;-44
2024/01/28 06:20:28;;;;;;;3.10;1.90;;;9.40;96.40;;;;;;5031322;28;20044;-43
2024/01/28 06:22:54;;;;;;;4.13;2.25;;;9.40;96.40;;;;;;5031630;28;20045;-43
2024/01/28 06:25:19;;;;;;;3.28;1.67;;;9.40;96.40;;;;;;5030694;28;20112;-42
2024/01/28 06:27:45;;;;;;;2.88;1.95;;;9.40;96.50;;;;;;5031065;28;20129;-45
2024/01/28 06:30:11;;;;;;;3.38;1.80;;;9.40;96.50;;;;;;5031127;28;20029;-45
2024/01/28 06:32:37;;;;;;;3.58;2.20;;;9.40;96.50;;;;;;5031077;28;20029;-45
2024/01/28 06:35:04;;;;;;;2.70;1.70;;;9.40;96.50;;;;;;5030994;28;20387;-45
2024/01/28 06:37:29;;;;;;;2.88;1.77;;;9.40;96.50;;;;;;5030938;28;20037;-42
2024/01/28 06:39:55;;;;;;;4.38;2.30;;;9.30;96.50;;;;;;5030754;28;20029;-45
2024/01/28 06:42:20;;;;;;;3.40;1.85;;;9.30;96.50;;;;;;5030998;28;20083;-45
2024/01/28 06:44:47;;;;;;;3.35;1.90;;;9.30;96.50;;;;;;5031275;28;20512;-45
2024/01/28 06:47:13;;;;;;;4.00;2.40;;;9.30;96.60;;;;;;5031437;28;20112;-44
2024/01/28 06:49:38;;;;;;;6.97;2.88;;;9.30;96.60;;;;;;5029683;28;20500;-45
2024/01/28 06:52:04;;;;;;;6.30;3.05;;;9.30;96.70;;;;;;5032209;28;20030;-40
2024/01/28 06:54:30;;;;;;;5.43;3.08;;;9.30;96.70;;;;;;5034239;28;20095;-44
2024/01/28 06:56:56;;;;;;;5.97;3.40;;;9.30;96.70;;;;;;5035482;28;20479;-45
2024/01/28 06:59:22;;;;;;;5.45;3.45;;;9.40;96.70;;;;;;5034621;28;20056;-44
2024/01/28 07:01:47;;;;;;;4.80;3.00;;;9.40;96.70;;;;;;5034371;28;20033;-44
2024/01/28 07:04:13;;;;;;;6.70;3.53;;;9.40;96.70;;;;;;5034455;28;20079;-44
2024/01/28 07:06:39;;;;;;;6.35;3.13;;;9.40;96.70;;;;;;5034229;28;20037;-44
2024/01/28 07:09:05;;;;;;;6.25;2.85;;;9.40;96.70;;;;;;5033994;28;20032;-44
2024/01/28 07:11:31;;;;;;;5.68;3.50;;;9.40;96.70;;;;;;5034459;28;20024;-42
2024/01/28 07:13:56;;;;;;;4.30;2.67;;;9.40;96.70;;;;;;5034086;28;20104;-45
2024/01/28 07:16:22;;;;;;;4.88;2.92;;;9.50;96.70;;;;;;5034327;28;20047;-45
2024/01/28 07:18:49;;;;;;;4.25;3.00;;;9.50;96.70;;;;;;5033865;28;20037;-45
2024/01/28 07:21:15;;;;;;;6.25;3.33;;;9.50;96.70;;;;;;5033970;28;20105;-44
2024/01/28 07:23:41;;;;;;;4.38;3.05;;;9.50;96.70;;;;;;5034489;28;20108;-44
2024/01/28 07:26:09;;;;;;;5.20;2.95;;;9.50;96.60;;;;;;5034792;28;20041;-44
2024/01/28 07:28:35;;;;;;;4.90;2.90;;;9.60;96.60;;;;;;5033894;28;20030;-44
2024/01/28 07:31:01;;;;;;;4.95;2.90;;;9.60;96.60;;;;;;5034036;28;20021;-41
2024/01/28 07:33:27;;;;;;;3.97;2.65;;;9.70;96.60;;;;;;5033748;28;20029;-45
2024/01/28 07:35:53;;;;;;;4.20;3.00;;;9.70;96.50;;;;;;5034210;28;20034;-39
2024/01/28 07:38:18;;;;;;;4.50;2.75;;;9.80;96.40;;;;;;5033580;28;20053;-45
2024/01/28 07:40:44;;;;;;;4.25;2.58;;;9.90;96.40;;;;;;5033737;28;20029;-44
2024/01/28 07:43:10;;;;;;;5.43;2.70;;;9.90;96.30;;;;;;5033601;28;20025;-42
2024/01/28 07:45:37;;;;;;;3.90;2.60;;;10.00;96.30;;;;;;5033894;28;20116;-45
2024/01/28 07:48:03;;;;;;;3.80;2.35;;;10.00;96.20;;;;;;5033971;28;20117;-45
2024/01/28 07:50:29;;;;;;;4.28;2.58;;;10.10;96.20;;;;;;5033643;28;20377;-44
2024/01/28 07:52:55;;;;;;;4.22;2.58;;;10.20;96.20;;;;;;5034623;28;20033;-42
2024/01/28 07:55:21;;;;;;;4.45;3.10;;;10.30;96.10;;;;;;5034698;28;20025;-45
2024/01/28 07:57:47;;;;;;;3.63;2.20;;;10.30;96.00;;;;;;5033253;28;20388;-45
2024/01/28 08:00:13;;;;;;;4.10;2.63;;;10.40;96.00;;;;;;5033237;28;20055;-44
2024/01/28 08:02:38;;;;;;;4.18;2.95;;;10.50;95.90;;;;;;5033169;28;20104;-45
2024/01/28 08:05:04;;;;;;;4.25;2.80;;;10.60;95.90;;;;;;5032175;28;20528;-45
2024/01/28 08:07:31;;;;;;;4.75;2.90;;;10.70;95.80;;;;;;5032120;28;20025;-45
2024/01/28 08:09:57;;;;;;;4.15;2.88;;;10.80;95.70;;;;;;5033376;28;20542;-45
2024/01/28 08:12:22;;;;;;;3.60;2.40;;;10.80;95.60;;;;;;5033033;28;20026;-43
2024/01/28 08:14:48;;;;;;;4.97;2.88;;;10.90;95.60;;;;;;5033141;28;20565;-43
2024/01/28 08:17:14;;;;;;;5.07;2.60;;;11.00;95.50;;;;;;5033227;28;20391;-45
2024/01/28 08:19:40;;;;;;;4.47;2.35;;;11.10;95.40;;;;;;5032911;28;20092;-45
2024/01/28 08:22:05;;;;;;;5.03;2.50;;;11.20;95.30;;;;;;5032841;28;20049;-45
2024/01/28 08:24:31;;;;;;;4.72;2.50;;;11.30;95.20;;;;;;5032695;28;20029;-45
2024/01/28 08:26:58;;;;;;;3.10;2.38;;;11.40;95.20;;;;;;5032691;28;20033;-42
2024/01/28 08:29:25;;;;;;;4.07;2.78;;;11.50;95.10;;;;;;5032766;28;20030;-44
2024/01/28 08:31:51;;;;;;;3.28;2.40;;;11.60;95.00;;;;;;5033207;28;20025;-45
2024/01/28 08:34:16;;;;;;;4.32;2.50;;;11.70;94.90;;;;;;5032564;28;20033;-44
2024/01/28 08:36:42;;;;;;;4.72;2.40;;;11.80;94.80;;;;;;5033209;28;20060;-42
2024/01/28 08:39:09;;;;;;;3.47;2.38;;;11.90;94.70;;;;;;5032760;28;20053;-44
2024/01/28 08:41:36;;;;;;;4.28;2.70;;;12.00;94.60;;;;;;5033484;28;20025;-42
2024/01/28 08:44:04;;;;;;;4.88;3.08;;;12.10;94.80;;;;;;5033955;28;20100;-44
2024/01/28 08:46:29;;;;;;;6.72;4.03;;;12.20;94.40;;;;;;5033626;28;20044;-45
2024/01/28 08:48:55;;;;;;;7.32;4.65;;;12.30;94.20;;;;;;5032157;28;20104;-45
2024/01/28 08:51:20;;;;;;;8.68;5.35;;;12.40;94.10;;;;;;5032414;28;20538;-45
2024/01/28 08:53:46;;;;;;;6.97;4.28;;;12.50;94.00;;;;;;5033741;28;20079;-42
2024/01/28 08:56:12;;;;;;;5.13;3.28;;;12.60;93.90;;;;;;5032739;28;20013;-48
2024/01/28 08:58:37;;;;;;;4.50;3.17;;;12.70;93.80;;;;;;5032590;28;20028;-44
2024/01/28 09:01:03;;;;;;;5.40;3.20;;;12.80;93.60;;;;;;5032273;28;20025;-45
2024/01/28 09:03:29;;;;;;;5.55;2.88;;;12.90;93.50;;;;;;5032036;28;20113;-45
2024/01/28 09:05:54;;;;;;;4.18;2.42;;;13.00;93.40;;;;;;5032595;28;20021;-44
2024/01/28 09:08:20;;;;;;;4.53;2.72;;;13.20;93.30;;;;;;5031812;28;20060;-44
2024/01/28 09:10:46;;;;;;;4.63;2.90;;;13.30;93.20;;;;;;5032274;28;20064;-43
2024/01/28 09:13:11;;;;;;;4.20;2.70;;;13.40;93.10;;;;;;5031849;28;20018;-45
2024/01/28 09:15:37;;;;;;;4.38;2.60;;;13.50;92.90;;;;;;5032072;28;20083;-45
2024/01/28 09:18:02;;;;;;;4.55;2.88;;;13.60;92.80;;;;;;5032206;28;20032;-44
2024/01/28 09:20:28;;;;;;;4.88;2.92;;;13.70;92.70;;;;;;5032315;28;20235;-43
2024/01/28 09:22:54;;;;;;;4.60;2.55;;;13.80;92.50;;;;;;5032972;28;20068;-45
2024/01/28 09:25:20;;;;;;;3.78;2.80;;;13.90;92.40;;;;;;5032514;28;20060;-42
2024/01/28 09:27:48;;;;;;;3.67;2.70;;;14.00;92.30;;;;;;5032209;28;20498;-44
2024/01/28 09:30:14;;;;;;;3.88;2.58;;;14.10;92.20;;;;;;5032820;28;20216;-45
2024/01/28 09:32:40;;;;;;;4.03;2.75;;;14.20;92.10;;;;;;5032704;28;20061;-43
2024/01/28 09:35:06;;;;;;;4.10;2.65;;;14.30;91.90;;;;;;5031971;28;20037;-43
2024/01/28 09:37:31;;;;;;;2.45;1.88;;;14.40;91.90;;;;;;5031517;28;20026;-40
2024/01/28 09:39:57;;;;;;;4.03;2.72;;;14.50;91.80;;;;;;5031580;28;20029;-44
2024/01/28 09:42:28;;;;;;;4.28;2.50;;;14.60;91.70;;;;;;5032031;28;20088;-45
2024/01/28 09:44:54;;;;;;;3.35;2.22;;;14.70;91.50;;;;;;5031837;28;20061;-43
2024/01/28 09:47:20;;;;;;;4.90;2.55;;;14.80;91.40;;;;;;5032746;28;20056;-44
2024/01/28 09:49:49;;;;;;;3.67;2.55;;;14.90;91.30;;;;;;5032786;28;20119;-44
2024/01/28 09:52:16;;;;;;;4.00;2.53;;;15.00;91.20;;;;;;5032887;28;20036;-43
2024/01/28 09:54:42;;;;;;;3.00;2.25;;;15.10;91.10;;;;;;5032167;28;20021;-44
2024/01/28 09:57:11;;;;;;;3.75;2.53;;;15.20;91.00;;;;;;5032316;28;20030;-43
2024/01/28 09:59:37;;;;;;;3.22;2.13;;;15.30;90.90;;;;;;5032271;28;20475;-42
2024/01/28 10:02:04;;;;;;;3.13;2.25;;;15.40;90.90;;;;;;5031683;28;20025;-44
2024/01/28 10:04:31;;;;;;;4.22;2.42;;;15.50;90.80;;;;;;5031516;28;20104;-44
2024/01/28 10:06:59;;;;;;;3.78;2.72;;;15.60;90.40;;;;;;5032510;28;20029;-43
2024/01/28 10:09:26;;;;;;;4.68;2.92;;;15.60;90.00;;;;;;5032363;28;20026;-45
2024/01/28 10:11:51;;;;;;;5.13;2.92;;;15.70;90.10;;;;;;5031569;28;20017;-45
2024/01/28 10:14:17;;;;;;;3.88;2.55;;;15.70;89.40;;;;;;5031708;28;20029;-43
2024/01/28 10:16:46;;;;;;;3.90;2.20;;;15.80;89.30;;;;;;5031129;28;20029;-45
2024/01/28 10:19:13;;;;;;;4.28;2.63;;;15.90;89.30;;;;;;5031536;28;20045;-45
2024/01/28 10:21:38;;;;;;;4.75;2.78;;;16.00;89.20;;;;;;5032551;28;20034;-45
2024/01/28 10:24:04;;;;;;;4.05;2.90;;;16.00;89.00;;;;;;5031099;28;20044;-45
2024/01/28 10:26:30;;;;;;;5.90;2.83;;;16.10;88.90;;;;;;5031259;28;20048;-44
2024/01/28 10:28:56;;;;;;;4.55;2.55;;;16.20;88.70;;;;;;5033491;28;20029;-44
2024/01/28 10:31:24;;;;;;;4.10;2.83;;;16.30;88.70;;;;;;5035275;28;20049;-43
2024/01/28 10:33:50;;;;;;;3.80;2.40;;;16.40;88.50;;;;;;5034923;28;20083;-44
2024/01/28 10:36:19;;;;;;;3.15;2.40;;;16.50;88.40;;;;;;5035000;28;20439;-44
2024/01/28 10:38:45;;;;;;;4.60;2.60;;;16.60;88.20;;;;;;5035552;28;20029;-45
2024/01/28 10:41:18;;;;;;;2.83;2.08;;;16.70;88.10;;;;;;5035459;28;20043;-45
2024/01/28 10:43:58;;;;;;;3.20;2.40;;;16.70;87.80;;;;;;5034550;28;20065;-44
2024/01/28 10:46:36;;;;;;;3.17;2.40;;;16.80;87.70;;;;;;5034680;28;20030;-45
2024/01/28 10:49:05;;;;;;;3.88;2.55;;;16.90;87.50;;;;;;5034557;28;20025;-45
2024/01/28 10:51:33;;;;;;;3.80;2.20;;;16.90;87.40;;;;;;5034667;28;20021;-45
2024/01/28 10:54:01;;;;;;;3.85;2.45;;;17.00;87.40;;;;;;5034852;28;20067;-44
2024/01/28 10:56:27;;;;;;;4.35;2.05;;;17.00;87.20;;;;;;5034616;28;20022;-44
2024/01/28 10:58:53;;;;;;;3.35;2.35;;;17.10;87.10;;;;;;5036019;28;20026;-45
2024/01/28 11:01:19;;;;;;;3.45;2.25;;;17.10;86.90;;;;;;5034987;28;20097;-44
2024/01/28 11:03:45;;;;;;;3.15;2.17;;;17.20;86.90;;;;;;5034412;28;20037;-44
2024/01/28 11:06:16;;;;;;;4.10;2.17;;;17.30;86.80;;;;;;5034387;28;20032;-44
2024/01/28 11:08:42;;;;;;;3.05;2.03;;;17.30;86.60;;;;;;5034090;28;20033;-43
2024/01/28 11:11:07;;;;;;;4.00;2.17;;;17.30;86.50;;;;;;5034507;28;20032;-45
2024/01/28 11:13:33;;;;;;;3.05;2.13;;;17.40;86.50;;;;;;5034033;28;20096;-44
2024/01/28 11:15:59;;;;;;;3.28;2.10;;;17.50;86.40;;;;;;5035531;28;20422;-43
2024/01/28 11:18:29;;;;;;;2.40;1.88;;;17.50;86.20;;;;;;5034526;28;20029;-43
2024/01/28 11:20:55;;;;;;;2.53;2.00;;;17.60;86.10;;;;;;5035217;28;20025;-45
2024/01/28 11:23:20;;;;;;;2.45;1.83;;;17.70;86.00;;;;;;5034470;28;20026;-44
2024/01/28 11:25:47;;;;;;;2.97;1.95;;;17.80;85.90;;;;;;5034432;28;20044;-43
2024/01/28 11:28:15;;;;;;;2.75;1.90;;;17.80;85.50;;;;;;5034477;28;20022;-41
2024/01/28 11:30:41;;;;;;;2.72;1.80;;;17.90;85.30;;;;;;5033863;28;20025;-45
2024/01/28 11:33:13;;;;;;;2.38;1.88;;;18.00;85.10;;;;;;5034537;28;20036;-43
2024/01/28 11:35:45;;;;;;;2.15;1.85;;;18.10;84.90;;;;;;5034878;28;20044;-45
2024/01/28 11:38:19;;;;;;;2.65;1.90;;;18.10;84.70;;;;;;5034368;28;20056;-43
2024/01/28 11:40:52;;;;;;;2.42;1.92;;;18.20;85.30;;;;;;5032424;28;20025;-43
2024/01/28 11:43:18;;;;;;;2.90;1.88;;;18.30;84.50;;;;;;5033704;28;20511;-42
2024/01/28 11:45:44;;;;;;;3.42;2.20;;;18.30;84.30;;;;;;5034045;28;20026;-44
2024/01/28 11:48:11;;;;;;;2.65;1.88;;;18.40;84.30;;;;;;5033377;28;20033;-44
2024/01/28 11:50:38;;;;;;;2.55;1.95;;;18.40;84.10;;;;;;5033476;28;20028;-45
2024/01/28 11:53:08;;;;;;;2.60;1.83;;;18.40;84.00;;;;;;5034989;28;20476;-43
2024/01/28 11:55:34;;;;;;;2.67;1.83;;;18.50;83.90;;;;;;5033312;28;20021;-44
2024/01/28 11:57:59;;;;;;;2.63;1.80;;;18.50;84.00;;;;;;5033318;28;20119;-43
2024/01/28 12:00:26;;;;;;;3.15;2.03;;;18.50;83.90;;;;;;5033330;28;20036;-43
2024/01/28 12:02:53;;;;;;;2.80;1.88;;;18.50;83.80;;;;;;5033703;28;20041;-41
2024/01/28 12:05:18;;;;;;;2.35;1.70;;;18.60;83.80;;;;;;5033196;28;20053;-43
2024/01/28 12:07:46;;;;;;;2.35;1.75;;;18.60;83.70;;;;;;5033136;28;20471;-43
2024/01/28 12:10:12;;;;;;;2.40;2.00;;;18.60;83.50;;;;;;5033237;28;20430;-44
2024/01/28 12:12:42;;;;;;;2.65;1.77;;;18.70;83.50;;;;;;5033617;28;20018;-44
2024/01/28 12:15:10;;;;;;;2.28;1.80;;;18.70;83.40;;;;;;5033310;28;20349;-43
2024/01/28 12:17:37;;;;;;;2.53;1.70;;;18.70;83.30;;;;;;5033856;28;20069;-44
2024/01/28 12:20:05;;;;;;;2.15;1.63;;;18.70;83.20;;;;;;5034097;28;20080;-43
2024/01/28 12:22:36;;;;;;;2.28;1.70;;;18.70;83.10;;;;;;5033869;28;20113;-42
2024/01/28 12:25:09;;;;;;;2.03;1.63;;;18.70;83.20;;;;;;5033209;28;20029;-43
2024/01/28 12:27:36;;;;;;;2.22;1.63;;;18.60;83.20;;;;;;5032927;28;20021;-45
2024/01/28 12:30:02;;;;;;;2.92;1.90;;;18.60;83.20;;;;;;5032982;28;20442;-43
2024/01/28 12:32:29;;;;;;;2.92;1.60;;;18.60;83.10;;;;;;5033116;28;20036;-46
2024/01/28 12:34:56;;;;;;;2.67;1.58;;;18.60;83.00;;;;;;5033725;28;20025;-44
2024/01/28 12:37:24;;;;;;;3.15;1.60;;;18.60;82.90;;;;;;5034166;28;20039;-45
2024/01/28 12:39:50;;;;;;;2.28;1.55;;;18.60;82.70;;;;;;5033291;28;20044;-45
2024/01/28 12:42:18;;;;;;;2.38;1.40;;;18.70;82.60;;;;;;5033369;28;20467;-44
2024/01/28 12:44:44;;;;;;;2.03;1.50;;;18.60;82.50;;;;;;5032290;28;20112;-43